sensor_id;sensor_type;location;lat;lon;timestamp;pressure;altitude;pressure_sealevel;temperature;humidity
28921;BME280;16035;53.594;9.952;2024-02-15T00:00:52;101329.88;;;12.22;89.45
28921;BME280;16035;53.594;9.952;2024-02-15T00:02:53;101331.25;;;12.25;89.54
28921;BME280;16035;53.594;9.952;2024-02-15T00:04:54;101334.53;;;12.27;89.01
28921;BME280;16035;53.594;9.952;2024-02-15T00:06:54;101340.56;;;12.29;89.27
28921;BME280;16035;53.594;9.952;2024-02-15T00:08:54;101336.72;;;12.25;89.39
28921;BME280;16035;53.594;9.952;2024-02-15T00:10:55;101336.13;;;12.23;89.26
28921;BME280;16035;53.594;9.952;2024-02-15T00:12:56;101335.31;;;12.22;89.54
28921;BME280;16035;53.594;9.952;2024-02-15T00:14:56;101326.31;;;12.22;89.30
28921;BME280;16035;53.594;9.952;2024-02-15T00:16:59;101336.72;;;12.25;89.57
28921;BME280;16035;53.594;9.952;2024-02-15T00:19:00;101341.06;;;12.26;89.43
28921;BME280;16035;53.594;9.952;2024-02-15T00:21:00;101338.34;;;12.26;89.43
28921;BME280;16035;53.594;9.952;2024-02-15T00:23:00;101330.44;;;12.24;88.96
28921;BME280;16035;53.594;9.952;2024-02-15T00:25:01;101338.84;;;12.23;89.17
28921;BME280;16035;53.594;9.952;2024-02-15T00:27:01;101340.22;;;12.20;89.35
28921;BME280;16035;53.594;9.952;2024-02-15T00:29:02;101337.72;;;12.19;89.62
28921;BME280;16035;53.594;9.952;2024-02-15T00:31:02;101338.81;;;12.18;89.56
28921;BME280;16035;53.594;9.952;2024-02-15T00:33:03;101335.41;;;12.05;89.40
28921;BME280;16035;53.594;9.952;2024-02-15T00:35:04;101331.94;;;12.10;89.55
28921;BME280;16035;53.594;9.952;2024-02-15T00:37:09;101335.22;;;12.12;89.72
28921;BME280;16035;53.594;9.952;2024-02-15T00:39:10;101332.00;;;12.15;89.40
28921;BME280;16035;53.594;9.952;2024-02-15T00:41:11;101330.91;;;12.16;89.67
28921;BME280;16035;53.594;9.952;2024-02-15T00:43:12;101335.25;;;12.17;89.69
28921;BME280;16035;53.594;9.952;2024-02-15T00:45:13;101334.75;;;12.20;89.54
28921;BME280;16035;53.594;9.952;2024-02-15T00:47:13;101331.50;;;12.23;89.18
28921;BME280;16035;53.594;9.952;2024-02-15T00:49:13;101335.91;;;12.24;89.16
28921;BME280;16035;53.594;9.952;2024-02-15T00:51:14;101337.22;;;12.22;88.94
28921;BME280;16035;53.594;9.952;2024-02-15T00:53:14;101343.75;;;12.21;89.14
28921;BME280;16035;53.594;9.952;2024-02-15T00:55:15;101338.31;;;12.21;89.32
28921;BME280;16035;53.594;9.952;2024-02-15T00:57:15;101341.03;;;12.21;89.44
28921;BME280;16035;53.594;9.952;2024-02-15T00:59:15;101347.84;;;12.23;89.31
28921;BME280;16035;53.594;9.952;2024-02-15T01:01:15;101335.06;;;12.24;89.17
28921;BME280;16035;53.594;9.952;2024-02-15T01:03:16;101340.25;;;12.25;89.52
28921;BME280;16035;53.594;9.952;2024-02-15T01:05:16;101340.81;;;12.27;89.07
28921;BME280;16035;53.594;9.952;2024-02-15T01:07:18;101348.44;;;12.25;89.31
28921;BME280;16035;53.594;9.952;2024-02-15T01:09:19;101345.97;;;12.24;89.47
28921;BME280;16035;53.594;9.952;2024-02-15T01:11:19;101341.59;;;12.23;89.35
28921;BME280;16035;53.594;9.952;2024-02-15T01:13:19;101348.44;;;12.25;89.27
28921;BME280;16035;53.594;9.952;2024-02-15T01:15:20;101351.47;;;12.29;89.58
28921;BME280;16035;53.594;9.952;2024-02-15T01:17:20;101349.31;;;12.31;88.94
28921;BME280;16035;53.594;9.952;2024-02-15T01:19:21;101353.94;;;12.30;89.27
28921;BME280;16035;53.594;9.952;2024-02-15T01:21:21;101344.94;;;12.30;89.19
28921;BME280;16035;53.594;9.952;2024-02-15T01:23:22;101344.38;;;12.28;89.32
28921;BME280;16035;53.594;9.952;2024-02-15T01:25:22;101343.28;;;12.29;89.35
28921;BME280;16035;53.594;9.952;2024-02-15T01:27:23;101349.31;;;12.31;89.28
28921;BME280;16035;53.594;9.952;2024-02-15T01:29:23;101341.38;;;12.29;89.30
28921;BME280;16035;53.594;9.952;2024-02-15T01:31:25;101338.94;;;12.28;89.50
28921;BME280;16035;53.594;9.952;2024-02-15T01:33:26;101353.63;;;12.27;89.34
28921;BME280;16035;53.594;9.952;2024-02-15T01:35:27;101345.41;;;12.22;89.56
28921;BME280;16035;53.594;9.952;2024-02-15T01:37:27;101343.25;;;12.24;89.41
28921;BME280;16035;53.594;9.952;2024-02-15T01:39:27;101342.16;;;12.25;89.61
28921;BME280;16035;53.594;9.952;2024-02-15T01:41:28;101347.13;;;12.28;89.68
28921;BME280;16035;53.594;9.952;2024-02-15T01:43:28;101346.56;;;12.31;89.35
28921;BME280;16035;53.594;9.952;2024-02-15T01:45:28;101345.25;;;12.33;89.34
28921;BME280;16035;53.594;9.952;2024-02-15T01:47:29;101350.94;;;12.32;89.61
28921;BME280;16035;53.594;9.952;2024-02-15T01:49:29;101352.59;;;12.33;89.41
28921;BME280;16035;53.594;9.952;2024-02-15T01:51:29;101338.97;;;12.33;89.40
28921;BME280;16035;53.594;9.952;2024-02-15T01:53:30;101346.03;;;12.29;89.56
28921;BME280;16035;53.594;9.952;2024-02-15T01:55:34;101340.56;;;12.29;89.36
28921;BME280;16035;53.594;9.952;2024-02-15T01:57:35;101352.59;;;12.33;89.40
28921;BME280;16035;53.594;9.952;2024-02-15T01:59:38;101341.72;;;12.33;89.34
28921;BME280;16035;53.594;9.952;2024-02-15T02:01:38;101338.97;;;12.33;89.14
28921;BME280;16035;53.594;9.952;2024-02-15T02:03:41;101345.50;;;12.32;89.41
28921;BME280;16035;53.594;9.952;2024-02-15T02:05:42;101341.66;;;12.28;89.39
28921;BME280;16035;53.594;9.952;2024-02-15T02:07:42;101350.38;;;12.30;89.63
28921;BME280;16035;53.594;9.952;2024-02-15T02:09:43;101342.75;;;12.32;89.69
28921;BME280;16035;53.594;9.952;2024-02-15T02:11:46;101336.75;;;12.30;89.30
28921;BME280;16035;53.594;9.952;2024-02-15T02:13:47;101339.22;;;12.31;89.44
28921;BME280;16035;53.594;9.952;2024-02-15T02:15:48;101340.56;;;12.29;89.51
28921;BME280;16035;53.594;9.952;2024-02-15T02:17:49;101330.75;;;12.28;89.81
28921;BME280;16035;53.594;9.952;2024-02-15T02:19:51;101330.50;;;12.29;89.51
28921;BME280;16035;53.594;9.952;2024-02-15T02:21:51;101337.03;;;12.28;89.53
28921;BME280;16035;53.594;9.952;2024-02-15T02:23:58;101335.34;;;12.27;89.76
28921;BME280;16035;53.594;9.952;2024-02-15T02:25:58;101337.31;;;12.32;89.19
28921;BME280;16035;53.594;9.952;2024-02-15T02:27:59;101335.16;;;12.34;89.44
28921;BME280;16035;53.594;9.952;2024-02-15T02:30:00;101335.63;;;12.26;89.48
28921;BME280;16035;53.594;9.952;2024-02-15T02:32:00;101333.47;;;12.28;89.55
28921;BME280;16035;53.594;9.952;2024-02-15T02:34:01;101336.75;;;12.30;89.75
28921;BME280;16035;53.594;9.952;2024-02-15T02:36:01;101344.94;;;12.30;89.44
28921;BME280;16035;53.594;9.952;2024-02-15T02:38:01;101345.50;;;12.32;89.73
28921;BME280;16035;53.594;9.952;2024-02-15T02:40:04;101348.78;;;12.34;89.74
28921;BME280;16035;53.594;9.952;2024-02-15T02:42:05;101342.53;;;12.33;89.33
28921;BME280;16035;53.594;9.952;2024-02-15T02:44:05;101349.88;;;12.33;89.32
28921;BME280;16035;53.594;9.952;2024-02-15T02:46:05;101343.84;;;12.31;89.37
28921;BME280;16035;53.594;9.952;2024-02-15T02:48:06;101347.66;;;12.30;89.75
28921;BME280;16035;53.594;9.952;2024-02-15T02:50:07;101346.56;;;12.31;89.81
28921;BME280;16035;53.594;9.952;2024-02-15T02:52:08;101341.13;;;12.31;89.65
28921;BME280;16035;53.594;9.952;2024-02-15T02:54:08;101335.13;;;12.29;89.74
28921;BME280;16035;53.594;9.952;2024-02-15T02:56:09;101330.50;;;12.29;89.76
28921;BME280;16035;53.594;9.952;2024-02-15T02:58:09;101332.63;;;12.27;89.90
28921;BME280;16035;53.594;9.952;2024-02-15T03:00:11;101332.13;;;12.30;89.66
28921;BME280;16035;53.594;9.952;2024-02-15T03:02:13;101334.84;;;12.30;90.01
28921;BME280;16035;53.594;9.952;2024-02-15T03:04:15;101331.84;;;12.32;89.71
28921;BME280;16035;53.594;9.952;2024-02-15T03:06:17;101331.94;;;12.37;89.56
28921;BME280;16035;53.594;9.952;2024-02-15T03:08:17;101334.66;;;12.37;89.53
28921;BME280;16035;53.594;9.952;2024-02-15T03:10:18;101335.16;;;12.34;89.68
28921;BME280;16035;53.594;9.952;2024-02-15T03:12:18;101339.47;;;12.30;90.04
28921;BME280;16035;53.594;9.952;2024-02-15T03:14:19;101339.47;;;12.30;89.89
28921;BME280;16035;53.594;9.952;2024-02-15T03:16:23;101341.66;;;12.28;89.96
28921;BME280;16035;53.594;9.952;2024-02-15T03:18:24;101340.03;;;12.32;90.03
28921;BME280;16035;53.594;9.952;2024-02-15T03:20:25;101337.06;;;12.33;89.79
28921;BME280;16035;53.594;9.952;2024-02-15T03:22:27;101348.22;;;12.32;89.91
28921;BME280;16035;53.594;9.952;2024-02-15T03:24:29;101349.31;;;12.31;89.89
28921;BME280;16035;53.594;9.952;2024-02-15T03:26:30;101344.94;;;12.30;89.93
28921;BME280;16035;53.594;9.952;2024-02-15T03:28:37;101346.25;;;12.27;90.06
28921;BME280;16035;53.594;9.952;2024-02-15T03:30:38;101348.75;;;12.29;89.95
28921;BME280;16035;53.594;9.952;2024-02-15T03:32:38;101351.16;;;12.25;89.97
28921;BME280;16035;53.594;9.952;2024-02-15T03:34:38;101345.19;;;12.28;89.87
28921;BME280;16035;53.594;9.952;2024-02-15T03:36:40;101352.19;;;12.19;90.10
28921;BME280;16035;53.594;9.952;2024-02-15T03:38:40;101349.56;;;12.29;89.91
28921;BME280;16035;53.594;9.952;2024-02-15T03:40:41;101353.66;;;12.32;89.91
28921;BME280;16035;53.594;9.952;2024-02-15T03:42:41;101350.94;;;12.32;89.88
28921;BME280;16035;53.594;9.952;2024-02-15T03:44:42;101354.75;;;12.31;90.01
28921;BME280;16035;53.594;9.952;2024-02-15T03:46:42;101358.28;;;12.31;90.03
28921;BME280;16035;53.594;9.952;2024-02-15T03:48:43;101355.34;;;12.33;89.72
28921;BME280;16035;53.594;9.952;2024-02-15T03:50:47;101360.19;;;12.31;89.84
28921;BME280;16035;53.594;9.952;2024-02-15T03:52:48;101365.56;;;12.21;89.80
28921;BME280;16035;53.594;9.952;2024-02-15T03:54:48;101366.75;;;12.30;90.08
28921;BME280;16035;53.594;9.952;2024-02-15T03:56:50;101362.69;;;12.32;90.20
28921;BME280;16035;53.594;9.952;2024-02-15T03:58:54;101367.06;;;12.33;89.85
28921;BME280;16035;53.594;9.952;2024-02-15T04:00:55;101365.97;;;12.34;90.16
28921;BME280;16035;53.594;9.952;2024-02-15T04:02:57;101359.75;;;12.39;89.87
28921;BME280;16035;53.594;9.952;2024-02-15T04:04:57;101357.56;;;12.41;90.08
28921;BME280;16035;53.594;9.952;2024-02-15T04:06:57;101353.78;;;12.42;89.74
28921;BME280;16035;53.594;9.952;2024-02-15T04:08:58;101362.47;;;12.39;89.88
28921;BME280;16035;53.594;9.952;2024-02-15T04:10:59;101354.56;;;12.37;90.10
28921;BME280;16035;53.594;9.952;2024-02-15T04:12:59;101364.38;;;12.38;89.82
28921;BME280;16035;53.594;9.952;2024-02-15T04:14:59;101362.72;;;12.37;90.02
28921;BME280;16035;53.594;9.952;2024-02-15T04:17:11;101355.63;;;12.36;90.00
28921;BME280;16035;53.594;9.952;2024-02-15T04:19:17;101366.00;;;12.39;90.11
28921;BME280;16035;53.594;9.952;2024-02-15T04:21:20;101362.50;;;12.44;90.04
28921;BME280;16035;53.594;9.952;2024-02-15T04:23:21;101360.56;;;12.39;90.14
28921;BME280;16035;53.594;9.952;2024-02-15T04:25:21;101362.47;;;12.39;90.14
28921;BME280;16035;53.594;9.952;2024-02-15T04:27:27;101371.19;;;12.41;90.05
28921;BME280;16035;53.594;9.952;2024-02-15T04:29:28;101371.19;;;12.41;90.19
28921;BME280;16035;53.594;9.952;2024-02-15T04:31:28;101370.97;;;12.43;90.03
28921;BME280;16035;53.594;9.952;2024-02-15T04:33:29;101379.94;;;12.43;90.31
28921;BME280;16035;53.594;9.952;2024-02-15T04:35:29;101373.19;;;12.46;90.13
28921;BME280;16035;53.594;9.952;2024-02-15T04:37:31;101384.63;;;12.48;89.88
28921;BME280;16035;53.594;9.952;2024-02-15T04:39:33;101380.00;;;12.48;89.81
28921;BME280;16035;53.594;9.952;2024-02-15T04:41:33;101382.16;;;12.46;89.90
28921;BME280;16035;53.594;9.952;2024-02-15T04:43:33;101386.53;;;12.47;90.12
28921;BME280;16035;53.594;9.952;2024-02-15T04:45:35;101380.78;;;12.44;89.96
28921;BME280;16035;53.594;9.952;2024-02-15T04:47:36;101385.13;;;12.45;90.23
28921;BME280;16035;53.594;9.952;2024-02-15T04:49:36;101391.69;;;12.44;89.88
28921;BME280;16035;53.594;9.952;2024-02-15T04:51:40;101390.03;;;12.43;90.03
28921;BME280;16035;53.594;9.952;2024-02-15T04:53:41;101390.28;;;12.41;90.15
28921;BME280;16035;53.594;9.952;2024-02-15T04:55:41;101392.44;;;12.39;90.03
28921;BME280;16035;53.594;9.952;2024-02-15T04:57:42;101399.00;;;12.38;90.20
28921;BME280;16035;53.594;9.952;2024-02-15T04:59:42;101387.25;;;12.37;90.47
28921;BME280;16035;53.594;9.952;2024-02-15T05:01:47;101397.41;;;12.42;90.30
28921;BME280;16035;53.594;9.952;2024-02-15T05:03:49;101397.41;;;12.42;90.21
28921;BME280;16035;53.594;9.952;2024-02-15T05:05:49;101395.72;;;12.41;90.12
28921;BME280;16035;53.594;9.952;2024-02-15T05:07:50;101399.53;;;12.40;90.36
28921;BME280;16035;53.594;9.952;2024-02-15T05:09:51;101400.69;;;12.44;90.14
28921;BME280;16035;53.594;9.952;2024-02-15T05:11:52;101403.16;;;12.46;89.98
28921;BME280;16035;53.594;9.952;2024-02-15T05:13:53;101396.03;;;12.45;90.13
28921;BME280;16035;53.594;9.952;2024-02-15T05:15:53;101388.94;;;12.44;90.23
28921;BME280;16035;53.594;9.952;2024-02-15T05:17:53;101389.44;;;12.40;90.38
28921;BME280;16035;53.594;9.952;2024-02-15T05:19:54;101390.84;;;12.43;90.38
28921;BME280;16035;53.594;9.952;2024-02-15T05:21:57;101392.75;;;12.43;90.45
28921;BME280;16035;53.594;9.952;2024-02-15T05:23:57;101391.94;;;12.42;90.63
28921;BME280;16035;53.594;9.952;2024-02-15T05:25:58;101392.75;;;12.43;90.45
28921;BME280;16035;53.594;9.952;2024-02-15T05:27:58;101393.06;;;12.46;90.39
28921;BME280;16035;53.594;9.952;2024-02-15T05:29:58;101393.63;;;12.48;90.25
28921;BME280;16035;53.594;9.952;2024-02-15T05:31:59;101386.53;;;12.47;90.59
28921;BME280;16035;53.594;9.952;2024-02-15T05:34:00;101383.53;;;12.49;90.25
28921;BME280;16035;53.594;9.952;2024-02-15T05:36:01;101389.56;;;12.51;90.38
28921;BME280;16035;53.594;9.952;2024-02-15T05:38:02;101376.75;;;12.51;90.39
28921;BME280;16035;53.594;9.952;2024-02-15T05:40:05;101385.75;;;12.52;90.04
28921;BME280;16035;53.594;9.952;2024-02-15T05:42:06;101386.31;;;12.54;90.16
28921;BME280;16035;53.594;9.952;2024-02-15T05:44:06;101381.41;;;12.51;90.53
28921;BME280;16035;53.594;9.952;2024-02-15T05:46:08;101373.91;;;12.41;90.36
28921;BME280;16035;53.594;9.952;2024-02-15T05:48:08;101381.34;;;12.46;90.52
28921;BME280;16035;53.594;9.952;2024-02-15T05:50:09;101376.13;;;12.44;90.53
28921;BME280;16035;53.594;9.952;2024-02-15T05:52:11;101374.50;;;12.43;90.72
28921;BME280;16035;53.594;9.952;2024-02-15T05:54:11;101375.91;;;12.46;90.82
28921;BME280;16035;53.594;9.952;2024-02-15T05:56:11;101377.22;;;12.43;90.72
28921;BME280;16035;53.594;9.952;2024-02-15T05:58:12;101381.03;;;12.42;90.91
28921;BME280;16035;53.594;9.952;2024-02-15T06:00:14;101384.22;;;12.34;90.88
28921;BME280;16035;53.594;9.952;2024-02-15T06:02:15;101382.38;;;12.39;90.77
28921;BME280;16035;53.594;9.952;2024-02-15T06:04:16;101372.28;;;12.40;90.83
28921;BME280;16035;53.594;9.952;2024-02-15T06:06:17;101376.66;;;12.41;90.71
28921;BME280;16035;53.594;9.952;2024-02-15T06:08:17;101377.22;;;12.43;90.99
28921;BME280;16035;53.594;9.952;2024-02-15T06:10:18;101374.22;;;12.45;90.80
28921;BME280;16035;53.594;9.952;2024-02-15T06:12:19;101385.41;;;12.43;90.90
28921;BME280;16035;53.594;9.952;2024-02-15T06:14:19;101384.31;;;12.44;90.59
28921;BME280;16035;53.594;9.952;2024-02-15T06:16:23;101394.41;;;12.44;90.57
28921;BME280;16035;53.594;9.952;2024-02-15T06:18:28;101389.25;;;12.47;90.79
28921;BME280;16035;53.594;9.952;2024-02-15T06:20:29;101392.25;;;12.46;90.53
28921;BME280;16035;53.594;9.952;2024-02-15T06:22:30;101392.44;;;12.39;90.73
28921;BME280;16035;53.594;9.952;2024-02-15T06:24:31;101393.06;;;12.46;90.71
28921;BME280;16035;53.594;9.952;2024-02-15T06:26:31;101387.63;;;12.46;90.86
28921;BME280;16035;53.594;9.952;2024-02-15T06:28:33;101392.53;;;12.49;90.80
28921;BME280;16035;53.594;9.952;2024-02-15T06:30:53;101393.13;;;12.51;90.60
28921;BME280;16035;53.594;9.952;2024-02-15T06:33:12;101393.13;;;12.51;90.66
28921;BME280;16035;53.594;9.952;2024-02-15T06:35:38;101392.53;;;12.49;90.84
28921;BME280;16035;53.594;9.952;2024-02-15T06:37:57;101391.16;;;12.47;90.78
28921;BME280;16035;53.594;9.952;2024-02-15T06:40:16;101393.06;;;12.46;90.95
28921;BME280;16035;53.594;9.952;2024-02-15T06:42:17;101397.03;;;12.33;90.45
28921;BME280;16035;53.594;9.952;2024-02-15T06:44:20;101392.19;;;12.40;91.04
28921;BME280;16035;53.594;9.952;2024-02-15T06:46:26;101388.63;;;12.40;90.69
28921;BME280;16035;53.594;9.952;2024-02-15T06:48:29;101385.41;;;12.43;90.99
28921;BME280;16035;53.594;9.952;2024-02-15T06:50:32;101392.19;;;12.40;90.96
28921;BME280;16035;53.594;9.952;2024-02-15T06:52:32;101387.81;;;12.39;91.18
28921;BME280;16035;53.594;9.952;2024-02-15T06:54:34;101389.44;;;12.40;91.07
28921;BME280;16035;53.594;9.952;2024-02-15T06:56:41;101387.03;;;12.44;91.02
28921;BME280;16035;53.594;9.952;2024-02-15T06:58:41;101396.34;;;12.48;90.94
28921;BME280;16035;53.594;9.952;2024-02-15T07:00:42;101397.44;;;12.47;90.66
28921;BME280;16035;53.594;9.952;2024-02-15T07:02:43;101396.03;;;12.45;91.01
28921;BME280;16035;53.594;9.952;2024-02-15T07:04:44;101395.13;;;12.34;90.91
28921;BME280;16035;53.594;9.952;2024-02-15T07:06:45;101391.03;;;12.36;90.82
28921;BME280;16035;53.594;9.952;2024-02-15T07:08:48;101394.34;;;12.38;91.30
28921;BME280;16035;53.594;9.952;2024-02-15T07:10:51;101399.03;;;12.43;91.05
28921;BME280;16035;53.594;9.952;2024-02-15T07:12:54;101402.31;;;12.45;90.83
28921;BME280;16035;53.594;9.952;2024-02-15T07:14:55;101400.44;;;12.46;90.76
28921;BME280;16035;53.594;9.952;2024-02-15T07:16:56;101401.50;;;12.45;90.67
28921;BME280;16035;53.594;9.952;2024-02-15T07:18:59;101404.81;;;12.47;90.84
28921;BME280;16035;53.594;9.952;2024-02-15T07:21:00;101399.91;;;12.49;90.94
28921;BME280;16035;53.594;9.952;2024-02-15T07:23:01;101402.94;;;12.52;90.64
28921;BME280;16035;53.594;9.952;2024-02-15T07:25:02;101394.50;;;12.54;90.92
28921;BME280;16035;53.594;9.952;2024-02-15T07:27:02;101406.53;;;12.58;90.84
28921;BME280;16035;53.594;9.952;2024-02-15T07:29:03;101400.53;;;12.56;90.60
28921;BME280;16035;53.594;9.952;2024-02-15T07:31:08;101396.44;;;12.58;90.85
28921;BME280;16035;53.594;9.952;2024-02-15T07:33:08;101396.75;;;12.62;90.59
28921;BME280;16035;53.594;9.952;2024-02-15T07:35:08;101402.53;;;12.65;90.46
28921;BME280;16035;53.594;9.952;2024-02-15T07:37:09;101404.16;;;12.67;90.14
28921;BME280;16035;53.594;9.952;2024-02-15T07:39:09;101401.19;;;12.68;90.57
28921;BME280;16035;53.594;9.952;2024-02-15T07:41:12;101407.19;;;12.70;90.46
28921;BME280;16035;53.594;9.952;2024-02-15T07:43:13;101398.50;;;12.73;90.58
28921;BME280;16035;53.594;9.952;2024-02-15T07:45:13;101409.41;;;12.73;90.63
28921;BME280;16035;53.594;9.952;2024-02-15T07:47:14;101412.69;;;12.75;90.79
28921;BME280;16035;53.594;9.952;2024-02-15T07:49:14;101417.31;;;12.75;90.23
28921;BME280;16035;53.594;9.952;2024-02-15T07:51:17;101411.31;;;12.73;90.49
28921;BME280;16035;53.594;9.952;2024-02-15T07:53:20;101412.97;;;12.74;90.57
28921;BME280;16035;53.594;9.952;2024-02-15T07:55:20;101405.56;;;12.69;90.26
28921;BME280;16035;53.594;9.952;2024-02-15T07:57:21;101412.38;;;12.72;90.74
28921;BME280;16035;53.594;9.952;2024-02-15T07:59:21;101413.50;;;12.76;90.43
28921;BME280;16035;53.594;9.952;2024-02-15T08:01:22;101421.47;;;12.77;90.66
28921;BME280;16035;53.594;9.952;2024-02-15T08:03:23;101416.28;;;12.81;90.41
28921;BME280;16035;53.594;9.952;2024-02-15T08:05:23;101418.19;;;12.80;90.30
28921;BME280;16035;53.594;9.952;2024-02-15T08:07:23;101423.66;;;12.80;90.21
28921;BME280;16035;53.594;9.952;2024-02-15T08:09:23;101420.91;;;12.80;90.50
28921;BME280;16035;53.594;9.952;2024-02-15T08:11:24;101419.00;;;12.81;90.29
28921;BME280;16035;53.594;9.952;2024-02-15T08:13:26;101427.72;;;12.78;90.23
28921;BME280;16035;53.594;9.952;2024-02-15T08:15:29;101424.72;;;12.79;90.43
28921;BME280;16035;53.594;9.952;2024-02-15T08:17:29;101417.41;;;12.85;90.30
28921;BME280;16035;53.594;9.952;2024-02-15T08:19:30;101417.41;;;12.85;90.38
28921;BME280;16035;53.594;9.952;2024-02-15T08:21:32;101419.31;;;12.84;90.17
28921;BME280;16035;53.594;9.952;2024-02-15T08:23:41;101423.13;;;12.83;90.13
28921;BME280;16035;53.594;9.952;2024-02-15T08:25:41;101423.13;;;12.83;89.99
28921;BME280;16035;53.594;9.952;2024-02-15T08:27:43;101420.09;;;12.80;90.17
28921;BME280;16035;53.594;9.952;2024-02-15T08:29:44;101417.38;;;12.80;90.28
28921;BME280;16035;53.594;9.952;2024-02-15T08:31:44;101419.59;;;12.83;90.18
28921;BME280;16035;53.594;9.952;2024-02-15T08:33:45;101420.38;;;12.78;90.19
28921;BME280;16035;53.594;9.952;2024-02-15T08:35:46;101409.69;;;12.77;90.56
28921;BME280;16035;53.594;9.952;2024-02-15T08:37:46;101397.75;;;12.83;90.52
28921;BME280;16035;53.594;9.952;2024-02-15T08:39:48;101408.22;;;12.91;90.33
28921;BME280;16035;53.594;9.952;2024-02-15T08:41:50;101401.16;;;12.95;90.21
28921;BME280;16035;53.594;9.952;2024-02-15T08:43:53;101410.97;;;12.96;90.54
28921;BME280;16035;53.594;9.952;2024-02-15T08:45:53;101409.63;;;12.99;90.54
28921;BME280;16035;53.594;9.952;2024-02-15T08:47:54;101402.56;;;13.03;90.36
28921;BME280;16035;53.594;9.952;2024-02-15T08:49:54;101403.97;;;13.10;90.46
28921;BME280;16035;53.594;9.952;2024-02-15T08:51:54;101405.91;;;13.15;90.72
28921;BME280;16035;53.594;9.952;2024-02-15T08:53:55;101398.81;;;13.14;90.34
28921;BME280;16035;53.594;9.952;2024-02-15T08:55:55;101395.31;;;13.19;90.30
28921;BME280;16035;53.594;9.952;2024-02-15T08:57:55;101396.66;;;13.16;90.22
28921;BME280;16035;53.594;9.952;2024-02-15T08:59:56;101398.00;;;13.13;90.49
28921;BME280;16035;53.594;9.952;2024-02-15T09:01:57;101399.38;;;13.16;90.42
28921;BME280;16035;53.594;9.952;2024-02-15T09:03:57;101393.91;;;13.16;90.68
28921;BME280;16035;53.594;9.952;2024-02-15T09:05:58;101401.28;;;13.15;90.69
28921;BME280;16035;53.594;9.952;2024-02-15T09:08:03;101401.88;;;13.18;90.51
28921;BME280;16035;53.594;9.952;2024-02-15T09:10:05;101400.78;;;13.19;90.65
28921;BME280;16035;53.594;9.952;2024-02-15T09:12:07;101401.59;;;13.19;90.11
28921;BME280;16035;53.594;9.952;2024-02-15T09:14:08;101404.31;;;13.19;90.48
28921;BME280;16035;53.594;9.952;2024-02-15T09:16:11;101403.84;;;13.22;90.30
28921;BME280;16035;53.594;9.952;2024-02-15T09:18:12;101405.19;;;13.25;90.53
28921;BME280;16035;53.594;9.952;2024-02-15T09:20:13;101404.16;;;13.31;90.25
28921;BME280;16035;53.594;9.952;2024-02-15T09:22:18;101403.63;;;13.34;90.67
28921;BME280;16035;53.594;9.952;2024-02-15T09:24:19;101407.47;;;13.38;90.40
28921;BME280;16035;53.594;9.952;2024-02-15T09:26:20;101404.22;;;13.41;90.38
28921;BME280;16035;53.594;9.952;2024-02-15T09:28:20;101400.97;;;13.44;90.29
28921;BME280;16035;53.594;9.952;2024-02-15T09:30:23;101401.53;;;13.46;90.52
28921;BME280;16035;53.594;9.952;2024-02-15T09:32:26;101409.44;;;13.48;90.07
28921;BME280;16035;53.594;9.952;2024-02-15T09:34:26;101403.72;;;13.44;90.22
28921;BME280;16035;53.594;9.952;2024-02-15T09:36:27;101398.25;;;13.44;90.29
28921;BME280;16035;53.594;9.952;2024-02-15T09:38:28;101401.25;;;13.48;90.09
28921;BME280;16035;53.594;9.952;2024-02-15T09:40:29;101404.53;;;13.45;90.00
28921;BME280;16035;53.594;9.952;2024-02-15T09:42:29;101401.22;;;13.43;90.05
28921;BME280;16035;53.594;9.952;2024-02-15T09:44:29;101403.41;;;13.40;90.12
28921;BME280;16035;53.594;9.952;2024-02-15T09:46:35;101403.13;;;13.42;90.22
28921;BME280;16035;53.594;9.952;2024-02-15T09:48:36;101408.63;;;13.47;90.44
28921;BME280;16035;53.594;9.952;2024-02-15T09:50:41;101402.06;;;13.48;90.41
28921;BME280;16035;53.594;9.952;2024-02-15T09:54:47;101408.09;;;13.50;90.33
28921;BME280;16035;53.594;9.952;2024-02-15T09:56:51;101412.78;;;13.55;89.84
28921;BME280;16035;53.594;9.952;2024-02-15T09:58:52;101408.69;;;13.57;90.38
28921;BME280;16035;53.594;9.952;2024-02-15T10:00:52;101412.50;;;13.61;89.93
28921;BME280;16035;53.594;9.952;2024-02-15T10:02:53;101406.81;;;13.63;89.97
28921;BME280;16035;53.594;9.952;2024-02-15T10:04:54;101410.88;;;13.60;89.65
28921;BME280;16035;53.594;9.952;2024-02-15T10:06:57;101420.13;;;13.54;89.52
28921;BME280;16035;53.594;9.952;2024-02-15T10:11:28;101420.13;;;13.54;89.80
28921;BME280;16035;53.594;9.952;2024-02-15T10:13:28;101409.50;;;13.53;90.17
28921;BME280;16035;53.594;9.952;2024-02-15T10:15:38;101409.44;;;13.48;89.71
28921;BME280;16035;53.594;9.952;2024-02-15T10:17:40;101414.09;;;13.52;89.81
28921;BME280;16035;53.594;9.952;2024-02-15T10:19:41;101412.25;;;13.58;90.09
28921;BME280;16035;53.594;9.952;2024-02-15T10:21:44;101413.06;;;13.58;89.94
28921;BME280;16035;53.594;9.952;2024-02-15T10:23:44;101410.09;;;13.65;90.03
28921;BME280;16035;53.594;9.952;2024-02-15T10:25:44;101408.75;;;13.68;89.96
28921;BME280;16035;53.594;9.952;2024-02-15T10:27:45;101409.84;;;13.72;89.95
28921;BME280;16035;53.594;9.952;2024-02-15T10:29:45;101404.41;;;13.72;89.96
28921;BME280;16035;53.594;9.952;2024-02-15T10:31:57;101403.31;;;13.73;89.92
28921;BME280;16035;53.594;9.952;2024-02-15T10:34:07;101409.06;;;13.76;89.97
28921;BME280;16035;53.594;9.952;2024-02-15T10:36:09;101406.63;;;13.80;89.46
28921;BME280;16035;53.594;9.952;2024-02-15T10:38:11;101408.25;;;13.81;89.61
28921;BME280;16035;53.594;9.952;2024-02-15T10:40:13;101408.00;;;13.82;89.56